sensor_id;sensor_type;location;lat;lon;timestamp;pressure;altitude;pressure_sealevel;temperature
71630;BMP280;59479;51.902;8.212;2023-12-07T00:01:04;101246.88;;;5.00
71630;BMP280;59479;51.902;8.212;2023-12-07T00:03:29;101243.56;;;5.00
71630;BMP280;59479;51.902;8.212;2023-12-07T00:05:55;101244.44;;;5.01
71630;BMP280;59479;51.902;8.212;2023-12-07T00:08:20;101248.56;;;5.00
71630;BMP280;59479;51.902;8.212;2023-12-07T00:10:45;101252.69;;;5.00
71630;BMP280;59479;51.902;8.212;2023-12-07T00:13:11;101249.16;;;4.94
71630;BMP280;59479;51.902;8.212;2023-12-07T00:15:36;101259.97;;;4.94
71630;BMP280;59479;51.902;8.212;2023-12-07T00:18:02;101257.56;;;4.97
71630;BMP280;59479;51.902;8.212;2023-12-07T00:20:29;101258.88;;;4.86
71630;BMP280;59479;51.902;8.212;2023-12-07T00:22:54;101267.25;;;4.88
71630;BMP280;59479;51.902;8.212;2023-12-07T00:25:20;101274.78;;;4.90
71630;BMP280;59479;51.902;8.212;2023-12-07T00:27:46;101279.81;;;4.91
71630;BMP280;59479;51.902;8.212;2023-12-07T00:30:11;101273.88;;;4.88
71630;BMP280;59479;51.902;8.212;2023-12-07T00:32:37;101276.22;;;4.83
71630;BMP280;59479;51.902;8.212;2023-12-07T00:35:03;101276.06;;;4.79
71630;BMP280;59479;51.902;8.212;2023-12-07T00:37:28;101279.50;;;4.82
71630;BMP280;59479;51.902;8.212;2023-12-07T00:39:54;101281.13;;;4.82
71630;BMP280;59479;51.902;8.212;2023-12-07T00:42:19;101273.78;;;4.85
71630;BMP280;59479;51.902;8.212;2023-12-07T00:44:45;101280.44;;;4.86
71630;BMP280;59479;51.902;8.212;2023-12-07T00:47:10;101282.03;;;4.84
71630;BMP280;59479;51.902;8.212;2023-12-07T00:49:39;101283.75;;;4.85
71630;BMP280;59479;51.902;8.212;2023-12-07T00:52:06;101292.00;;;4.84
71630;BMP280;59479;51.902;8.212;2023-12-07T00:54:31;101293.69;;;4.85
71630;BMP280;59479;51.902;8.212;2023-12-07T00:56:57;101295.31;;;4.84
71630;BMP280;59479;51.902;8.212;2023-12-07T00:59:23;101291.16;;;4.83
71630;BMP280;59479;51.902;8.212;2023-12-07T01:01:48;101300.28;;;4.83
71630;BMP280;59479;51.902;8.212;2023-12-07T01:04:14;101298.56;;;4.82
71630;BMP280;59479;51.902;8.212;2023-12-07T01:06:39;101300.28;;;4.83
71630;BMP280;59479;51.902;8.212;2023-12-07T01:09:05;101296.75;;;4.76
71630;BMP280;59479;51.902;8.212;2023-12-07T01:11:30;101295.31;;;4.83
71630;BMP280;59479;51.902;8.212;2023-12-07T01:13:55;101305.88;;;4.77
71630;BMP280;59479;51.902;8.212;2023-12-07T01:16:21;101304.94;;;4.74
71630;BMP280;59479;51.902;8.212;2023-12-07T01:18:46;101302.50;;;4.75
71630;BMP280;59479;51.902;8.212;2023-12-07T01:21:11;101300.81;;;4.74
71630;BMP280;59479;51.902;8.212;2023-12-07T01:23:37;101302.50;;;4.75
71630;BMP280;59479;51.902;8.212;2023-12-07T01:26:03;101296.56;;;4.72
71630;BMP280;59479;51.902;8.212;2023-12-07T01:28:28;101303.34;;;4.76
71630;BMP280;59479;51.902;8.212;2023-12-07T01:30:54;101305.75;;;4.73
71630;BMP280;59479;51.902;8.212;2023-12-07T01:33:19;101307.31;;;4.71
71630;BMP280;59479;51.902;8.212;2023-12-07T01:35:45;101305.59;;;4.68
71630;BMP280;59479;51.902;8.212;2023-12-07T01:38:10;101307.06;;;4.63
71630;BMP280;59479;51.902;8.212;2023-12-07T01:40:36;101306.97;;;4.60
71630;BMP280;59479;51.902;8.212;2023-12-07T01:43:01;101312.88;;;4.64
71630;BMP280;59479;51.902;8.212;2023-12-07T01:45:26;101319.56;;;4.65
71630;BMP280;59479;51.902;8.212;2023-12-07T01:47:53;101322.84;;;4.64
71630;BMP280;59479;51.902;8.212;2023-12-07T01:50:20;101326.03;;;4.60
71630;BMP280;59479;51.902;8.212;2023-12-07T01:52:49;101318.41;;;4.56
71630;BMP280;59479;51.902;8.212;2023-12-07T01:55:16;101318.34;;;4.54
71630;BMP280;59479;51.902;8.212;2023-12-07T01:57:43;101327.53;;;4.55
71630;BMP280;59479;51.902;8.212;2023-12-07T02:00:10;101335.69;;;4.51
71630;BMP280;59479;51.902;8.212;2023-12-07T02:02:36;101332.28;;;4.49
71630;BMP280;59479;51.902;8.212;2023-12-07T02:05:01;101333.97;;;4.50
71630;BMP280;59479;51.902;8.212;2023-12-07T02:07:27;101334.75;;;4.49
71630;BMP280;59479;51.902;8.212;2023-12-07T02:09:53;101338.97;;;4.50
71630;BMP280;59479;51.902;8.212;2023-12-07T02:12:19;101331.59;;;4.53
71630;BMP280;59479;51.902;8.212;2023-12-07T02:14:45;101335.78;;;4.54
71630;BMP280;59479;51.902;8.212;2023-12-07T02:17:38;101332.38;;;4.52
71630;BMP280;59479;51.902;8.212;2023-12-07T02:20:21;101337.25;;;4.49
71630;BMP280;59479;51.902;8.212;2023-12-07T02:22:55;101338.97;;;4.50
71630;BMP280;59479;51.902;8.212;2023-12-07T02:25:31;101344.94;;;4.55
71630;BMP280;59479;51.902;8.212;2023-12-07T02:27:57;101343.25;;;4.54
71630;BMP280;59479;51.902;8.212;2023-12-07T02:30:22;101338.31;;;4.56
71630;BMP280;59479;51.902;8.212;2023-12-07T02:32:48;101345.72;;;4.54
71630;BMP280;59479;51.902;8.212;2023-12-07T02:35:14;101351.63;;;4.56
71630;BMP280;59479;51.902;8.212;2023-12-07T02:37:44;101355.81;;;4.57
71630;BMP280;59479;51.902;8.212;2023-12-07T02:40:11;101362.16;;;4.49
71630;BMP280;59479;51.902;8.212;2023-12-07T02:42:40;101361.47;;;4.53
71630;BMP280;59479;51.902;8.212;2023-12-07T02:45:07;101357.34;;;4.54
71630;BMP280;59479;51.902;8.212;2023-12-07T02:47:33;101352.53;;;4.58
71630;BMP280;59479;51.902;8.212;2023-12-07T02:49:58;101350.81;;;4.57
71630;BMP280;59479;51.902;8.212;2023-12-07T02:52:24;101349.09;;;4.55
71630;BMP280;59479;51.902;8.212;2023-12-07T02:54:49;101344.06;;;4.53
71630;BMP280;59479;51.902;8.212;2023-12-07T02:57:14;101364.56;;;4.46
71630;BMP280;59479;51.902;8.212;2023-12-07T02:59:40;101355.50;;;4.48
71630;BMP280;59479;51.902;8.212;2023-12-07T03:02:06;101352.25;;;4.51
71630;BMP280;59479;51.902;8.212;2023-12-07T03:04:31;101359.00;;;4.53
71630;BMP280;59479;51.902;8.212;2023-12-07T03:06:57;101360.78;;;4.57
71630;BMP280;59479;51.902;8.212;2023-12-07T03:09:23;101354.75;;;4.51
71630;BMP280;59479;51.902;8.212;2023-12-07T03:11:48;101350.72;;;4.54
71630;BMP280;59479;51.902;8.212;2023-12-07T03:14:13;101347.44;;;4.55
71630;BMP280;59479;51.902;8.212;2023-12-07T03:16:39;101358.09;;;4.51
71630;BMP280;59479;51.902;8.212;2023-12-07T03:19:04;101354.75;;;4.51
71630;BMP280;59479;51.902;8.212;2023-12-07T03:21:29;101361.47;;;4.53
71630;BMP280;59479;51.902;8.212;2023-12-07T03:23:55;101359.78;;;4.52
71630;BMP280;59479;51.902;8.212;2023-12-07T03:26:20;101344.88;;;4.54
71630;BMP280;59479;51.902;8.212;2023-12-07T03:28:46;101354.84;;;4.54
71630;BMP280;59479;51.902;8.212;2023-12-07T03:31:11;101343.16;;;4.51
71630;BMP280;59479;51.902;8.212;2023-12-07T03:33:36;101345.66;;;4.51
71630;BMP280;59479;51.902;8.212;2023-12-07T03:36:03;101356.50;;;4.53
71630;BMP280;59479;51.902;8.212;2023-12-07T03:38:29;101354.00;;;4.53
71630;BMP280;59479;51.902;8.212;2023-12-07T03:40:54;101357.28;;;4.52
71630;BMP280;59479;51.902;8.212;2023-12-07T03:43:20;101350.72;;;4.54
71630;BMP280;59479;51.902;8.212;2023-12-07T03:45:46;101354.00;;;4.53
71630;BMP280;59479;51.902;8.212;2023-12-07T03:48:12;101360.59;;;4.51
71630;BMP280;59479;51.902;8.212;2023-12-07T03:50:37;101359.59;;;4.48
71630;BMP280;59479;51.902;8.212;2023-12-07T03:53:02;101361.53;;;4.55
71630;BMP280;59479;51.902;8.212;2023-12-07T03:55:28;101357.28;;;4.52
71630;BMP280;59479;51.902;8.212;2023-12-07T03:57:53;101359.66;;;4.49
71630;BMP280;59479;51.902;8.212;2023-12-07T04:00:18;101367.03;;;4.46
71630;BMP280;59479;51.902;8.212;2023-12-07T04:02:44;101364.38;;;4.42
71630;BMP280;59479;51.902;8.212;2023-12-07T04:05:09;101366.81;;;4.40
71630;BMP280;59479;51.902;8.212;2023-12-07T04:07:34;101358.31;;;4.35
71630;BMP280;59479;51.902;8.212;2023-12-07T04:10:00;101359.81;;;4.30
71630;BMP280;59479;51.902;8.212;2023-12-07T04:12:25;101360.50;;;4.26
71630;BMP280;59479;51.902;8.212;2023-12-07T04:14:50;101356.63;;;4.34
71630;BMP280;59479;51.902;8.212;2023-12-07T04:17:17;101358.28;;;4.34
71630;BMP280;59479;51.902;8.212;2023-12-07T04:19:42;101359.09;;;4.33
71630;BMP280;59479;51.902;8.212;2023-12-07T04:22:08;101356.63;;;4.34
71630;BMP280;59479;51.902;8.212;2023-12-07T04:24:33;101351.44;;;4.28
71630;BMP280;59479;51.902;8.212;2023-12-07T04:26:58;101356.38;;;4.27
71630;BMP280;59479;51.902;8.212;2023-12-07T04:29:24;101356.09;;;4.19
71630;BMP280;59479;51.902;8.212;2023-12-07T04:31:49;101363.75;;;4.25
71630;BMP280;59479;51.902;8.212;2023-12-07T04:34:14;101372.03;;;4.24
71630;BMP280;59479;51.902;8.212;2023-12-07T04:36:40;101369.50;;;4.23
71630;BMP280;59479;51.902;8.212;2023-12-07T04:39:05;101370.34;;;4.23
71630;BMP280;59479;51.902;8.212;2023-12-07T04:41:31;101374.41;;;4.21
71630;BMP280;59479;51.902;8.212;2023-12-07T04:43:57;101366.94;;;4.21
71630;BMP280;59479;51.902;8.212;2023-12-07T04:46:22;101369.44;;;4.21
71630;BMP280;59479;51.902;8.212;2023-12-07T04:48:47;101371.97;;;4.23
71630;BMP280;59479;51.902;8.212;2023-12-07T04:51:13;101368.75;;;4.25
71630;BMP280;59479;51.902;8.212;2023-12-07T04:53:38;101367.09;;;4.26
71630;BMP280;59479;51.902;8.212;2023-12-07T04:56:04;101372.94;;;4.26
71630;BMP280;59479;51.902;8.212;2023-12-07T04:58:30;101371.13;;;4.22
71630;BMP280;59479;51.902;8.212;2023-12-07T05:00:55;101367.84;;;4.23
71630;BMP280;59479;51.902;8.212;2023-12-07T05:03:20;101367.72;;;4.20
71630;BMP280;59479;51.902;8.212;2023-12-07T05:05:46;101382.84;;;4.25
71630;BMP280;59479;51.902;8.212;2023-12-07T05:08:11;101371.03;;;4.19
71630;BMP280;59479;51.902;8.212;2023-12-07T05:10:37;101367.72;;;4.20
71630;BMP280;59479;51.902;8.212;2023-12-07T05:13:03;101367.16;;;4.27
71630;BMP280;59479;51.902;8.212;2023-12-07T05:15:28;101371.97;;;4.23
71630;BMP280;59479;51.902;8.212;2023-12-07T05:17:53;101373.72;;;4.25
71630;BMP280;59479;51.902;8.212;2023-12-07T05:20:19;101366.25;;;4.25
71630;BMP280;59479;51.902;8.212;2023-12-07T05:22:48;101368.81;;;4.27
71630;BMP280;59479;51.902;8.212;2023-12-07T05:25:13;101371.97;;;4.23
71630;BMP280;59479;51.902;8.212;2023-12-07T05:27:38;101375.13;;;4.19
71630;BMP280;59479;51.902;8.212;2023-12-07T05:30:04;101377.78;;;4.23
71630;BMP280;59479;51.902;8.212;2023-12-07T05:32:30;101380.97;;;4.19
71630;BMP280;59479;51.902;8.212;2023-12-07T05:34:55;101394.19;;;4.18
71630;BMP280;59479;51.902;8.212;2023-12-07T05:37:20;101389.28;;;4.20
71630;BMP280;59479;51.902;8.212;2023-12-07T05:39:46;101381.19;;;4.25
71630;BMP280;59479;51.902;8.212;2023-12-07T05:42:11;101381.81;;;4.20
71630;BMP280;59479;51.902;8.212;2023-12-07T05:44:37;101390.94;;;4.19
71630;BMP280;59479;51.902;8.212;2023-12-07T05:47:02;101401.03;;;4.24
71630;BMP280;59479;51.902;8.212;2023-12-07T05:49:28;101402.44;;;4.17
71630;BMP280;59479;51.902;8.212;2023-12-07T05:51:53;101389.91;;;4.15
71630;BMP280;59479;51.902;8.212;2023-12-07T05:54:18;101401.78;;;4.21
71630;BMP280;59479;51.902;8.212;2023-12-07T05:56:47;101394.47;;;4.26
71630;BMP280;59479;51.902;8.212;2023-12-07T05:59:13;101398.53;;;4.24
71630;BMP280;59479;51.902;8.212;2023-12-07T06:01:38;101391.97;;;4.26
71630;BMP280;59479;51.902;8.212;2023-12-07T06:04:03;101391.25;;;4.28
71630;BMP280;59479;51.902;8.212;2023-12-07T06:06:29;101387.94;;;4.28
71630;BMP280;59479;51.902;8.212;2023-12-07T06:08:54;101393.94;;;4.34
71630;BMP280;59479;51.902;8.212;2023-12-07T06:11:19;101401.41;;;4.34
71630;BMP280;59479;51.902;8.212;2023-12-07T06:13:45;101393.69;;;4.27
71630;BMP280;59479;51.902;8.212;2023-12-07T06:16:13;101387.00;;;4.26
71630;BMP280;59479;51.902;8.212;2023-12-07T06:18:39;101393.88;;;4.31
71630;BMP280;59479;51.902;8.212;2023-12-07T06:21:05;101400.63;;;4.35
71630;BMP280;59479;51.902;8.212;2023-12-07T06:23:31;101399.75;;;4.33
71630;BMP280;59479;51.902;8.212;2023-12-07T06:25:56;101401.41;;;4.34
71630;BMP280;59479;51.902;8.212;2023-12-07T06:28:22;101392.03;;;4.27
71630;BMP280;59479;51.902;8.212;2023-12-07T06:30:47;101392.91;;;4.28
71630;BMP280;59479;51.902;8.212;2023-12-07T06:33:12;101398.03;;;4.32
71630;BMP280;59479;51.902;8.212;2023-12-07T06:35:38;101411.50;;;4.37
71630;BMP280;59479;51.902;8.212;2023-12-07T06:38:04;101409.06;;;4.39
71630;BMP280;59479;51.902;8.212;2023-12-07T06:40:29;101416.66;;;4.42
71630;BMP280;59479;51.902;8.212;2023-12-07T06:42:56;101416.34;;;4.34
71630;BMP280;59479;51.902;8.212;2023-12-07T06:45:22;101414.56;;;4.30
71630;BMP280;59479;51.902;8.212;2023-12-07T06:47:47;101418.19;;;4.38
71630;BMP280;59479;51.902;8.212;2023-12-07T06:50:13;101418.22;;;4.40
71630;BMP280;59479;51.902;8.212;2023-12-07T06:52:39;101423.41;;;4.46
71630;BMP280;59479;51.902;8.212;2023-12-07T06:55:05;101428.34;;;4.44
71630;BMP280;59479;51.902;8.212;2023-12-07T06:57:31;101433.44;;;4.47
71630;BMP280;59479;51.902;8.212;2023-12-07T06:59:57;101433.09;;;4.38
71630;BMP280;59479;51.902;8.212;2023-12-07T07:02:22;101430.69;;;4.40
71630;BMP280;59479;51.902;8.212;2023-12-07T07:04:48;101429.81;;;4.39
71630;BMP280;59479;51.902;8.212;2023-12-07T07:07:14;101431.00;;;4.49
71630;BMP280;59479;51.902;8.212;2023-12-07T07:09:42;101440.75;;;4.43
71630;BMP280;59479;51.902;8.212;2023-12-07T07:12:07;101443.84;;;4.37
71630;BMP280;59479;51.902;8.212;2023-12-07T07:14:33;101447.09;;;4.35
71630;BMP280;59479;51.902;8.212;2023-12-07T07:16:59;101443.19;;;4.41
71630;BMP280;59479;51.902;8.212;2023-12-07T07:19:25;101442.94;;;4.35
71630;BMP280;59479;51.902;8.212;2023-12-07T07:21:50;101439.44;;;4.30
71630;BMP280;59479;51.902;8.212;2023-12-07T07:24:16;101441.22;;;4.34
71630;BMP280;59479;51.902;8.212;2023-12-07T07:26:41;101434.91;;;4.42
71630;BMP280;59479;51.902;8.212;2023-12-07T07:29:06;101443.25;;;4.43
71630;BMP280;59479;51.902;8.212;2023-12-07T07:31:32;101441.59;;;4.43
71630;BMP280;59479;51.902;8.212;2023-12-07T07:33:57;101423.28;;;4.41
71630;BMP280;59479;51.902;8.212;2023-12-07T07:36:23;101424.09;;;4.42
71630;BMP280;59479;51.902;8.212;2023-12-07T07:38:48;101430.56;;;4.37
71630;BMP280;59479;51.902;8.212;2023-12-07T07:41:14;101431.13;;;4.30
71630;BMP280;59479;51.902;8.212;2023-12-07T07:43:39;101433.75;;;4.33
71630;BMP280;59479;51.902;8.212;2023-12-07T07:46:05;101432.75;;;4.29
71630;BMP280;59479;51.902;8.212;2023-12-07T07:48:31;101436.75;;;4.24
71630;BMP280;59479;51.902;8.212;2023-12-07T07:50:57;101436.03;;;4.28
71630;BMP280;59479;51.902;8.212;2023-12-07T07:53:23;101443.56;;;4.30
71630;BMP280;59479;51.902;8.212;2023-12-07T07:55:48;101436.25;;;4.34
71630;BMP280;59479;51.902;8.212;2023-12-07T07:58:14;101433.88;;;4.37
71630;BMP280;59479;51.902;8.212;2023-12-07T08:00:39;101433.44;;;4.25
71630;BMP280;59479;51.902;8.212;2023-12-07T08:03:05;101440.78;;;4.22
71630;BMP280;59479;51.902;8.212;2023-12-07T08:05:30;101437.31;;;4.19
71630;BMP280;59479;51.902;8.212;2023-12-07T08:07:55;101439.81;;;4.19
71630;BMP280;59479;51.902;8.212;2023-12-07T08:10:21;101446.38;;;4.17
71630;BMP280;59479;51.902;8.212;2023-12-07T08:12:46;101442.66;;;4.28
71630;BMP280;59479;51.902;8.212;2023-12-07T08:15:12;101436.03;;;4.28
71630;BMP280;59479;51.902;8.212;2023-12-07T08:17:41;101444.19;;;4.24
71630;BMP280;59479;51.902;8.212;2023-12-07T08:20:08;101444.28;;;4.27
71630;BMP280;59479;51.902;8.212;2023-12-07T08:22:38;101453.34;;;4.25
71630;BMP280;59479;51.902;8.212;2023-12-07T08:25:04;101451.66;;;4.24
71630;BMP280;59479;51.902;8.212;2023-12-07T08:27:33;101447.69;;;4.29
71630;BMP280;59479;51.902;8.212;2023-12-07T08:29:59;101446.06;;;4.30
71630;BMP280;59479;51.902;8.212;2023-12-07T08:32:24;101451.03;;;4.30
71630;BMP280;59479;51.902;8.212;2023-12-07T08:34:51;101455.94;;;4.28
71630;BMP280;59479;51.902;8.212;2023-12-07T08:37:17;101453.16;;;4.21
71630;BMP280;59479;51.902;8.212;2023-12-07T08:39:42;101456.63;;;4.24
71630;BMP280;59479;51.902;8.212;2023-12-07T08:42:08;101450.84;;;4.25
71630;BMP280;59479;51.902;8.212;2023-12-07T08:44:33;101452.25;;;4.19
71630;BMP280;59479;51.902;8.212;2023-12-07T08:46:58;101448.94;;;4.18
71630;BMP280;59479;51.902;8.212;2023-12-07T08:49:24;101450.63;;;4.19
71630;BMP280;59479;51.902;8.212;2023-12-07T08:51:49;101462.41;;;4.23
71630;BMP280;59479;51.902;8.212;2023-12-07T08:54:15;101455.06;;;4.26
71630;BMP280;59479;51.902;8.212;2023-12-07T08:56:44;101453.69;;;4.34
71630;BMP280;59479;51.902;8.212;2023-12-07T08:59:09;101459.69;;;4.39
71630;BMP280;59479;51.902;8.212;2023-12-07T09:01:34;101463.25;;;4.46
71630;BMP280;59479;51.902;8.212;2023-12-07T09:04:00;101456.69;;;4.48
71630;BMP280;59479;51.902;8.212;2023-12-07T09:06:25;101457.59;;;4.50
71630;BMP280;59479;51.902;8.212;2023-12-07T09:08:51;101460.25;;;4.54
71630;BMP280;59479;51.902;8.212;2023-12-07T09:11:16;101466.69;;;4.49
71630;BMP280;59479;51.902;8.212;2023-12-07T09:13:41;101465.78;;;4.47
71630;BMP280;59479;51.902;8.212;2023-12-07T09:16:07;101468.97;;;4.43
71630;BMP280;59479;51.902;8.212;2023-12-07T09:18:33;101458.31;;;4.47
71630;BMP280;59479;51.902;8.212;2023-12-07T09:21:00;101468.34;;;4.49
71630;BMP280;59479;51.902;8.212;2023-12-07T09:23:25;101464.25;;;4.51
71630;BMP280;59479;51.902;8.212;2023-12-07T09:25:51;101470.13;;;4.53
71630;BMP280;59479;51.902;8.212;2023-12-07T09:28:16;101468.41;;;4.50
71630;BMP280;59479;51.902;8.212;2023-12-07T09:30:41;101473.38;;;4.50
71630;BMP280;59479;51.902;8.212;2023-12-07T09:33:07;101472.53;;;4.50
71630;BMP280;59479;51.902;8.212;2023-12-07T09:35:32;101470.06;;;4.50
71630;BMP280;59479;51.902;8.212;2023-12-07T09:37:59;101476.06;;;4.55
71630;BMP280;59479;51.902;8.212;2023-12-07T09:40:24;101479.13;;;4.49
71630;BMP280;59479;51.902;8.212;2023-12-07T09:42:51;101484.19;;;4.51
71630;BMP280;59479;51.902;8.212;2023-12-07T09:45:17;101481.22;;;4.60
71630;BMP280;59479;51.902;8.212;2023-12-07T09:47:50;101481.03;;;4.55
71630;BMP280;59479;51.902;8.212;2023-12-07T09:50:17;101475.41;;;4.60
71630;BMP280;59479;51.902;8.212;2023-12-07T09:52:43;101469.69;;;4.62
71630;BMP280;59479;51.902;8.212;2023-12-07T09:55:09;101465.63;;;4.64
71630;BMP280;59479;51.902;8.212;2023-12-07T09:57:36;101467.25;;;4.64
71630;BMP280;59479;51.902;8.212;2023-12-07T10:00:03;101467.13;;;4.61
71630;BMP280;59479;51.902;8.212;2023-12-07T10:02:29;101464.72;;;4.62
71630;BMP280;59479;51.902;8.212;2023-12-07T10:05:08;101449.16;;;4.68
71630;BMP280;59479;51.902;8.212;2023-12-07T10:07:37;101448.28;;;4.67
71630;BMP280;59479;51.902;8.212;2023-12-07T10:10:03;101447.56;;;4.70
71630;BMP280;59479;51.902;8.212;2023-12-07T10:12:48;101451.75;;;4.71
71630;BMP280;59479;51.902;8.212;2023-12-07T10:15:17;101440.16;;;4.71
71630;BMP280;59479;51.902;8.212;2023-12-07T10:20:16;101444.81;;;4.86
71630;BMP280;59479;51.902;8.212;2023-12-07T10:22:41;101442.31;;;4.86
71630;BMP280;59479;51.902;8.212;2023-12-07T10:25:07;101434.13;;;4.88
71630;BMP280;59479;51.902;8.212;2023-12-07T10:27:34;101435.03;;;4.90
71630;BMP280;59479;51.902;8.212;2023-12-07T10:30:00;101429.28;;;4.93
71630;BMP280;59479;51.902;8.212;2023-12-07T10:32:26;101416.03;;;4.94
71630;BMP280;59479;51.902;8.212;2023-12-07T10:34:52;101423.28;;;4.86
71630;BMP280;59479;51.902;8.212;2023-12-07T10:37:18;101414.31;;;4.91
71630;BMP280;59479;51.902;8.212;2023-12-07T10:39:43;101411.81;;;4.91
71630;BMP280;59479;51.902;8.212;2023-12-07T10:42:10;101411.97;;;4.96
71630;BMP280;59479;51.902;8.212;2023-12-07T10:44:41;101407.84;;;4.96
71630;BMP280;59479;51.902;8.212;2023-12-07T10:47:10;101401.94;;;4.94
71630;BMP280;59479;51.902;8.212;2023-12-07T10:49:36;101402.09;;;4.99
71630;BMP280;59479;51.902;8.212;2023-12-07T10:52:07;101403.91;;;5.02
71630;BMP280;59479;51.902;8.212;2023-12-07T10:54:50;101395.59;;;5.02
71630;BMP280;59479;51.902;8.212;2023-12-07T10:57:19;101386.63;;;5.07
71630;BMP280;59479;51.902;8.212;2023-12-07T10:59:45;101391.50;;;5.04
71630;BMP280;59479;51.902;8.212;2023-12-07T11:02:12;101380.69;;;5.03
71630;BMP280;59479;51.902;8.212;2023-12-07T11:04:40;101384.84;;;5.03
71630;BMP280;59479;51.902;8.212;2023-12-07T11:07:10;101381.59;;;5.05
71630;BMP280;59479;51.902;8.212;2023-12-07T11:09:45;101389.00;;;5.04
71630;BMP280;59479;51.902;8.212;2023-12-07T11:12:28;101376.81;;;5.11
71630;BMP280;59479;51.902;8.212;2023-12-07T11:14:54;101373.44;;;5.09
71630;BMP280;59479;51.902;8.212;2023-12-07T11:17:20;101366.03;;;5.12
71630;BMP280;59479;51.902;8.212;2023-12-07T11:19:47;101357.00;;;5.14
71630;BMP280;59479;51.902;8.212;2023-12-07T11:22:13;101354.63;;;5.19
71630;BMP280;59479;51.902;8.212;2023-12-07T11:25:05;101347.16;;;5.19
71630;BMP280;59479;51.902;8.212;2023-12-07T11:27:32;101352.94;;;5.18
71630;BMP280;59479;51.902;8.212;2023-12-07T11:30:02;101341.31;;;5.18
71630;BMP280;59479;51.902;8.212;2023-12-07T11:32:27;101332.19;;;5.19
71630;BMP280;59479;51.902;8.212;2023-12-07T11:34:53;101348.03;;;5.19
71630;BMP280;59479;51.902;8.212;2023-12-07T11:37:19;101347.25;;;5.22
71630;BMP280;59479;51.902;8.212;2023-12-07T11:39:45;101346.59;;;5.27
71630;BMP280;59479;51.902;8.212;2023-12-07T11:42:17;101338.19;;;5.24
71630;BMP280;59479;51.902;8.212;2023-12-07T11:44:47;101328.25;;;5.25
71630;BMP280;59479;51.902;8.212;2023-12-07T11:47:18;101324.22;;;5.29
71630;BMP280;59479;51.902;8.212;2023-12-07T11:49:45;101314.34;;;5.32
71630;BMP280;59479;51.902;8.212;2023-12-07T11:52:18;101310.25;;;5.34
71630;BMP280;59479;51.902;8.212;2023-12-07T11:54:45;101312.09;;;5.39
71630;BMP280;59479;51.902;8.212;2023-12-07T11:57:11;101307.09;;;5.39
71630;BMP280;59479;51.902;8.212;2023-12-07T11:59:37;101311.31;;;5.40
71630;BMP280;59479;51.902;8.212;2023-12-07T12:02:03;101314.63;;;5.41
71630;BMP280;59479;51.902;8.212;2023-12-07T12:04:28;101305.59;;;5.44
71630;BMP280;59479;51.902;8.212;2023-12-07T12:06:54;101303.16;;;5.45
71630;BMP280;59479;51.902;8.212;2023-12-07T12:09:19;101290.75;;;5.47
71630;BMP280;59479;51.902;8.212;2023-12-07T12:11:45;101293.00;;;5.40
71630;BMP280;59479;51.902;8.212;2023-12-07T12:14:14;101296.56;;;5.47
71630;BMP280;59479;51.902;8.212;2023-12-07T12:16:39;101285.94;;;5.53
71630;BMP280;59479;51.902;8.212;2023-12-07T12:19:05;101283.31;;;5.48
71630;BMP280;59479;51.902;8.212;2023-12-07T12:21:33;101271.63;;;5.47
71630;BMP280;59479;51.902;8.212;2023-12-07T12:23:59;101265.91;;;5.50
71630;BMP280;59479;51.902;8.212;2023-12-07T12:26:24;101268.34;;;5.48
71630;BMP280;59479;51.902;8.212;2023-12-07T12:28:50;101266.06;;;5.56
71630;BMP280;59479;51.902;8.212;2023-12-07T12:31:18;101267.69;;;5.54
71630;BMP280;59479;51.902;8.212;2023-12-07T12:33:43;101256.97;;;5.56
71630;BMP280;59479;51.902;8.212;2023-12-07T12:36:08;101262.69;;;5.54
71630;BMP280;59479;51.902;8.212;2023-12-07T12:38:39;101262.06;;;5.59
71630;BMP280;59479;51.902;8.212;2023-12-07T12:41:04;101260.19;;;5.54
71630;BMP280;59479;51.902;8.212;2023-12-07T12:43:31;101262.00;;;5.58
71630;BMP280;59479;51.902;8.212;2023-12-07T12:45:57;101253.00;;;5.63
71630;BMP280;59479;51.902;8.212;2023-12-07T12:48:26;101253.00;;;5.63
71630;BMP280;59479;51.902;8.212;2023-12-07T12:50:51;101242.25;;;5.65
71630;BMP280;59479;51.902;8.212;2023-12-07T12:53:16;101234.84;;;5.67
71630;BMP280;59479;51.902;8.212;2023-12-07T12:55:42;101224.94;;;5.70
71630;BMP280;59479;51.902;8.212;2023-12-07T12:58:09;101231.53;;;5.68
71630;BMP280;59479;51.902;8.212;2023-12-07T13:00:38;101221.56;;;5.68
71630;BMP280;59479;51.902;8.212;2023-12-07T13:03:05;101224.06;;;5.68
71630;BMP280;59479;51.902;8.212;2023-12-07T13:05:31;101211.59;;;5.68
71630;BMP280;59479;51.902;8.212;2023-12-07T13:07:57;101209.06;;;5.66
71630;BMP280;59479;51.902;8.212;2023-12-07T13:10:25;101218.00;;;5.60
71630;BMP280;59479;51.902;8.212;2023-12-07T13:12:50;101213.16;;;5.64
71630;BMP280;59479;51.902;8.212;2023-12-07T13:15:16;101203.13;;;5.63
71630;BMP280;59479;51.902;8.212;2023-12-07T13:17:42;101207.25;;;5.62
71630;BMP280;59479;51.902;8.212;2023-12-07T13:20:09;101204.13;;;5.68
71630;BMP280;59479;51.902;8.212;2023-12-07T13:22:40;101191.75;;;5.72
71630;BMP280;59479;51.902;8.212;2023-12-07T13:25:06;101201.06;;;5.76
71630;BMP280;59479;51.902;8.212;2023-12-07T13:27:34;101190.31;;;5.79
71630;BMP280;59479;51.902;8.212;2023-12-07T13:30:00;101186.09;;;5.76
71630;BMP280;59479;51.902;8.212;2023-12-07T13:32:26;101180.25;;;5.76
71630;BMP280;59479;51.902;8.212;2023-12-07T13:34:52;101185.31;;;5.79
71630;BMP280;59479;51.902;8.212;2023-12-07T13:37:17;101175.13;;;5.71
71630;BMP280;59479;51.902;8.212;2023-12-07T13:39:42;101172.72;;;5.74
71630;BMP280;59479;51.902;8.212;2023-12-07T13:42:08;101168.69;;;5.78
71630;BMP280;59479;51.902;8.212;2023-12-07T13:44:35;101171.19;;;5.79
71630;BMP280;59479;51.902;8.212;2023-12-07T13:47:00;101174.47;;;5.77
71630;BMP280;59479;51.902;8.212;2023-12-07T13:49:26;101178.69;;;5.79
71630;BMP280;59479;51.902;8.212;2023-12-07T13:51:51;101175.94;;;5.72
71630;BMP280;59479;51.902;8.212;2023-12-07T13:54:17;101171.09;;;5.75
71630;BMP280;59479;51.902;8.212;2023-12-07T13:56:42;101173.59;;;5.75
71630;BMP280;59479;51.902;8.212;2023-12-07T13:59:08;101168.69;;;5.78
71630;BMP280;59479;51.902;8.212;2023-12-07T14:01:36;101169.63;;;5.81
71630;BMP280;59479;51.902;8.212;2023-12-07T14:04:01;101167.91;;;5.80
71630;BMP280;59479;51.902;8.212;2023-12-07T14:06:27;101172.84;;;5.79